createdAt,value
2022-10-05T00:04:52.141Z,82.18
2022-10-05T00:11:34.834Z,83.20
2022-10-05T00:18:17.410Z,83.41
2022-10-05T00:25:00.091Z,83.19
2022-10-05T00:31:42.715Z,83.13
2022-10-05T00:38:26.040Z,83.17
2022-10-05T00:45:24.095Z,83.12
2022-10-05T00:51:46.917Z,83.66
2022-10-05T01:12:39.659Z,83.45
2022-10-05T01:19:34.549Z,83.75
2022-10-05T01:26:18.752Z,84.06
2022-10-05T01:33:17.093Z,84.42
2022-10-05T01:40:14.869Z,84.55
2022-10-05T02:01:09.832Z,84.05
2022-10-05T02:07:53.850Z,84.45
2022-10-05T02:14:36.807Z,84.87
2022-10-05T02:21:25.998Z,84.68
2022-10-05T02:28:09.042Z,84.79
2022-10-05T02:35:07.160Z,84.50
2022-10-05T02:41:50.278Z,84.40
2022-10-05T02:48:39.260Z,84.60
2022-10-05T02:55:22.008Z,84.50
2022-10-05T03:02:04.978Z,84.53
2022-10-05T03:08:53.683Z,84.37
2022-10-05T03:16:12.420Z,84.71
2022-10-05T03:23:04.279Z,84.29
2022-10-05T03:29:53.886Z,84.05
2022-10-05T03:44:27.715Z,84.02
2022-10-05T03:51:05.855Z,83.81
2022-10-05T03:57:34.547Z,83.01
2022-10-05T04:04:17.394Z,83.36
2022-10-05T04:11:00.277Z,83.20
2022-10-05T04:17:46.237Z,83.14
2022-10-05T04:24:40.842Z,83.68
2022-10-05T04:31:24.629Z,83.46
2022-10-05T04:38:16.780Z,84.15
2022-10-05T04:45:26.994Z,84.22
2022-10-05T04:52:18.545Z,84.75
2022-10-05T04:58:51.060Z,84.30
2022-10-05T05:05:27.312Z,84.59
2022-10-05T05:11:30.521Z,84.52
2022-10-05T05:18:06.565Z,84.34
2022-10-05T05:31:05.412Z,84.65
2022-10-05T05:36:50.556Z,84.32
2022-10-05T05:43:20.124Z,84.30
2022-10-05T05:50:06.979Z,84.10
2022-10-05T05:56:34.232Z,84.14
2022-10-05T06:02:07.258Z,83.85
2022-10-05T06:07:31.956Z,84.24
2022-10-05T06:13:57.372Z,83.91
2022-10-05T06:20:39.444Z,83.79
2022-10-05T06:27:20.394Z,84.14
2022-10-05T06:34:05.215Z,84.23
2022-10-05T06:40:41.525Z,84.14
2022-10-05T06:47:28.924Z,83.50
2022-10-05T06:54:17.676Z,82.68
2022-10-05T07:00:20.394Z,81.92
2022-10-05T07:13:56.058Z,80.31
2022-10-05T07:20:19.304Z,79.02
2022-10-05T07:27:14.598Z,78.01
2022-10-05T07:34:02.087Z,76.36
2022-10-05T07:40:14.875Z,75.59
2022-10-05T07:46:40.234Z,73.67
2022-10-05T07:52:10.687Z,73.26
2022-10-05T07:58:12.573Z,72.36
2022-10-05T08:04:16.122Z,71.06
2022-10-05T08:10:27.663Z,69.12
2022-10-05T08:15:54.081Z,69.12
2022-10-05T08:21:21.054Z,69.51
2022-10-05T08:27:08.605Z,68.06
2022-10-05T08:32:37.957Z,66.45
2022-10-05T08:38:24.670Z,65.07
2022-10-05T08:43:50.546Z,64.99
2022-10-05T08:49:43.024Z,63.42
2022-10-05T08:55:11.066Z,62.56
2022-10-05T09:00:49.075Z,62.43
2022-10-05T09:06:17.219Z,61.81
2022-10-05T09:11:54.717Z,60.93
2022-10-05T09:17:22.822Z,60.34
2022-10-05T09:23:20.195Z,60.66
2022-10-05T09:29:20.858Z,62.20
2022-10-05T09:35:25.085Z,59.64
2022-10-05T09:41:33.863Z,59.96
2022-10-05T09:59:53.034Z,55.61
2022-10-05T10:05:49.144Z,55.27
2022-10-05T10:12:01.772Z,53.57
2022-10-05T10:17:43.107Z,51.88
2022-10-05T10:23:54.692Z,51.94
2022-10-05T10:55:53.104Z,50.46
2022-10-05T11:02:09.087Z,50.63
2022-10-05T11:07:59.537Z,50.35
2022-10-05T11:13:59.062Z,50.55
2022-10-05T11:19:59.523Z,50.55
2022-10-05T11:25:56.124Z,50.09
2022-10-05T11:32:29.293Z,50.68
2022-10-05T11:39:19.500Z,50.57
2022-10-05T11:45:53.131Z,49.80
2022-10-05T11:51:50.581Z,49.95
2022-10-05T11:57:35.058Z,49.95
2022-10-05T12:03:33.199Z,49.81
2022-10-05T12:09:42.973Z,49.47
2022-10-05T12:15:34.741Z,48.71
2022-10-05T12:21:52.947Z,48.19
2022-10-05T12:27:43.231Z,48.40
2022-10-05T12:33:35.008Z,48.91
2022-10-05T12:57:06.316Z,50.93
2022-10-05T13:03:00.378Z,51.82
2022-10-05T13:08:43.826Z,51.68
2022-10-05T13:14:12.317Z,51.97
2022-10-05T13:20:09.756Z,52.38
2022-10-05T13:25:56.174Z,52.47
2022-10-05T13:31:43.633Z,53.10
2022-10-05T13:38:07.872Z,53.35
2022-10-05T13:44:18.308Z,54.15
2022-10-05T13:50:23.210Z,54.05
2022-10-05T13:56:08.033Z,54.54
2022-10-05T14:02:01.950Z,53.74
2022-10-05T14:07:57.034Z,52.49
2022-10-05T14:13:48.742Z,51.23
2022-10-05T14:19:22.385Z,51.02
2022-10-05T14:25:34.475Z,50.83
2022-10-05T14:31:27.730Z,50.95
2022-10-05T14:36:57.060Z,51.03
2022-10-05T14:43:23.579Z,51.37
2022-10-05T14:49:08.832Z,52.00
2022-10-05T14:55:01.310Z,52.69
2022-10-05T15:00:27.321Z,53.22
2022-10-05T15:05:56.085Z,54.12
2022-10-05T15:11:27.880Z,55.22
2022-10-05T15:17:43.280Z,56.48
2022-10-05T15:23:52.867Z,57.79
2022-10-05T15:30:14.206Z,58.81
2022-10-05T15:36:04.885Z,59.68
2022-10-05T15:42:29.829Z,60.35
2022-10-05T15:49:00.747Z,60.95
2022-10-05T15:55:46.546Z,61.41
2022-10-05T16:02:01.362Z,61.87
2022-10-05T16:14:56.196Z,62.82
2022-10-05T16:41:23.987Z,64.42
2022-10-05T16:47:16.204Z,71.16
2022-10-05T16:52:55.179Z,71.87
2022-10-05T16:59:31.977Z,71.82
2022-10-05T17:06:15.384Z,70.57
2022-10-05T17:12:22.317Z,66.34
2022-10-05T17:18:15.320Z,64.14
2022-10-05T17:24:00.925Z,64.35
2022-10-05T17:29:43.166Z,65.00
2022-10-05T17:35:26.135Z,65.58
2022-10-05T17:41:14.272Z,66.13
2022-10-05T17:47:02.120Z,66.60
2022-10-05T17:52:49.165Z,66.88
2022-10-05T17:58:32.202Z,67.33
2022-10-05T18:04:52.799Z,67.70
2022-10-05T18:11:07.323Z,67.91
2022-10-05T18:16:57.216Z,67.99
2022-10-05T18:22:46.210Z,68.16
2022-10-05T18:34:51.631Z,68.24
2022-10-05T18:47:38.472Z,68.80
2022-10-05T18:54:11.824Z,68.88
2022-10-05T19:00:34.064Z,69.49
2022-10-05T19:07:17.587Z,69.89
2022-10-05T19:14:06.812Z,70.20
2022-10-05T19:20:26.147Z,70.32
2022-10-05T19:47:01.334Z,71.26
2022-10-05T19:53:09.381Z,71.63
2022-10-05T19:59:39.180Z,71.89
2022-10-05T20:05:43.039Z,72.22
2022-10-05T20:11:30.089Z,72.49
2022-10-05T20:17:59.729Z,72.79
2022-10-05T20:23:42.439Z,73.09
2022-10-05T20:29:48.806Z,73.34
2022-10-05T20:36:32.459Z,73.87
2022-10-05T20:43:32.356Z,75.89
2022-10-05T20:50:15.902Z,74.56
2022-10-05T20:56:59.561Z,74.20
2022-10-05T21:03:42.500Z,74.46
2022-10-05T21:10:26.205Z,74.60
2022-10-05T21:17:14.779Z,75.01
2022-10-05T21:23:58.569Z,75.51
2022-10-05T21:30:41.682Z,75.64
2022-10-05T21:37:27.259Z,75.73
2022-10-05T21:44:10.370Z,76.29
2022-10-05T21:50:54.385Z,76.34
2022-10-05T21:57:37.284Z,76.65
2022-10-05T22:04:22.983Z,76.77
2022-10-05T22:11:10.556Z,76.97
2022-10-05T22:17:55.445Z,77.10
2022-10-05T22:24:02.918Z,77.29
